• location
  • image
mod_vvisit_countermod_vvisit_countermod_vvisit_countermod_vvisit_countermod_vvisit_countermod_vvisit_countermod_vvisit_counter
mod_vvisit_counterToday204
mod_vvisit_counterYesterday479
mod_vvisit_counterThis week204
mod_vvisit_counterLast week4472
mod_vvisit_counterThis month6032
mod_vvisit_counterLast month17680
mod_vvisit_counterAll days1031944

We have: 14 guests online
Your IP: 54.226.36.60
 , 
Today: Dec 10, 2018
Airport / About us / Main Airport Fees

Main Airport Fees

 

Name of the Fee

Amount of Fees

Landing International & domestic flights
For aircraft with MTOW less than 2t – 15,06 €
For aircraft with MTOW 2t to 15t – 15,06 € for every 1t MTOW 
For aircraft with MTOW 15t to 60t – 13,90 € for every 1t MTOW 
For aircraft with MTOW 60t to 101 t – 12,16 € for every 1t MTOW 
For aircraft with MTOW 101t to 171 t – 11,00 € for every 1t MTOW 
For aircraft with MTOW 171t to 200 t – 9,27 € for every 1t MTOW 
For aircraft with MTOW 200t and more – 8,69 € for every 1t MTOW
Parking

10 percent off of landing fee, parking fee is calculated for 24 hours.

Free of charge, if:

a) an aircraft is parked up to 3 hours;

b) an air freighter is parked up to 6 hours and its MTOW is 101 - 170 tons;

c) an air freighter is parked up to 9 hours and its MTOW is 171 tons and up;

If an aircraft is parked longer than the time mentioned in points a), b) and c) then the parking fee is calculated for 24 hours, which is 10 percent off of the landing fee.

Departing passenger International & domestic flights
5,79 €
Aviation security 10 percent off of landing fee
Follow-me 17,38 €

 Landing fees are valid from 01JAN2017

Ground handling fees and charges for supplemental services are provided to aircraft and their crews  under a separate agreement.

Today

Monday, 10 December 2018

Aviation Weather Forecast

[source: ADDS]
METAR
EYSA 100320Z 21007KT 1100 R14L/1600N BR VV003 03/03 Q0991 R14L/29//95 AMB NOSIG =
TAF EYSA 100203Z 1003/1012 VRB05KT 1500 BR OVC002 TEMPO 1003/1009 0500 DZ FG BECMG 1009/1011 3000
TAF
TAF EYSA 100203Z 1003/1012 VRB05KT 1500 BR OVC002 TEMPO 1003/1009 0500 DZ FG BECMG 1009/1011 3000 =
SR / SS: 06:41 / 14:00 UTC (EYSA 2018-12-10)

Search

Who's Online

We have 14 guests online

tic logo en